sensor_id;sensor_type;location;lat;lon;timestamp;pressure;altitude;pressure_sealevel;temperature
28305;BMP280;15569;42.652;23.040;2023-05-29T00:00:41;92772.38;;;17.58
28305;BMP280;15569;42.652;23.040;2023-05-29T00:03:07;92775.00;;;17.52
28305;BMP280;15569;42.652;23.040;2023-05-29T00:05:34;92773.25;;;17.33
28305;BMP280;15569;42.652;23.040;2023-05-29T00:08:00;92773.03;;;16.91
28305;BMP280;15569;42.652;23.040;2023-05-29T00:10:25;92772.78;;;16.79
28305;BMP280;15569;42.652;23.040;2023-05-29T00:12:51;92781.31;;;17.25
28305;BMP280;15569;42.652;23.040;2023-05-29T00:15:16;92777.78;;;17.54
28305;BMP280;15569;42.652;23.040;2023-05-29T00:17:42;92771.53;;;17.18
28305;BMP280;15569;42.652;23.040;2023-05-29T00:20:08;92782.66;;;17.24
28305;BMP280;15569;42.652;23.040;2023-05-29T00:22:35;92779.44;;;17.36
28305;BMP280;15569;42.652;23.040;2023-05-29T00:25:04;92780.13;;;17.34
28305;BMP280;15569;42.652;23.040;2023-05-29T00:27:30;92777.88;;;17.25
28305;BMP280;15569;42.652;23.040;2023-05-29T00:29:55;92768.38;;;17.32
28305;BMP280;15569;42.652;23.040;2023-05-29T00:32:21;92775.03;;;17.21
28305;BMP280;15569;42.652;23.040;2023-05-29T00:34:46;92779.56;;;17.42
28305;BMP280;15569;42.652;23.040;2023-05-29T00:37:11;92772.44;;;17.62
28305;BMP280;15569;42.652;23.040;2023-05-29T00:39:37;92774.06;;;17.40
28305;BMP280;15569;42.652;23.040;2023-05-29T00:42:02;92771.78;;;17.64
28305;BMP280;15569;42.652;23.040;2023-05-29T00:44:28;92778.25;;;17.80
28305;BMP280;15569;42.652;23.040;2023-05-29T00:46:53;92775.00;;;17.88
28305;BMP280;15569;42.652;23.040;2023-05-29T00:49:20;92769.38;;;17.84
28305;BMP280;15569;42.652;23.040;2023-05-29T00:51:47;92774.38;;;17.93
28305;BMP280;15569;42.652;23.040;2023-05-29T00:54:27;92767.72;;;17.67
28305;BMP280;15569;42.652;23.040;2023-05-29T00:56:54;92770.63;;;17.41
28305;BMP280;15569;42.652;23.040;2023-05-29T00:59:20;92770.41;;;17.29
28305;BMP280;15569;42.652;23.040;2023-05-29T01:01:51;92759.84;;;17.15
28305;BMP280;15569;42.652;23.040;2023-05-29T01:04:17;92749.91;;;17.34
28305;BMP280;15569;42.652;23.040;2023-05-29T01:06:42;92740.69;;;17.55
28305;BMP280;15569;42.652;23.040;2023-05-29T01:09:09;92746.94;;;17.60
28305;BMP280;15569;42.652;23.040;2023-05-29T01:14:43;92755.63;;;17.82
28305;BMP280;15569;42.652;23.040;2023-05-29T01:25:10;92760.50;;;17.50
28305;BMP280;15569;42.652;23.040;2023-05-29T01:27:38;92755.44;;;17.36
28305;BMP280;15569;42.652;23.040;2023-05-29T01:30:07;92749.34;;;17.40
28305;BMP280;15569;42.652;23.040;2023-05-29T01:32:33;92759.03;;;17.45
28305;BMP280;15569;42.652;23.040;2023-05-29T01:34:59;92755.75;;;17.52
28305;BMP280;15569;42.652;23.040;2023-05-29T01:37:24;92752.66;;;17.34
28305;BMP280;15569;42.652;23.040;2023-05-29T01:39:50;92744.66;;;17.46
28305;BMP280;15569;42.652;23.040;2023-05-29T01:42:16;92748.66;;;17.41
28305;BMP280;15569;42.652;23.040;2023-05-29T01:44:41;92743.28;;;17.47
28305;BMP280;15569;42.652;23.040;2023-05-29T01:47:08;92748.28;;;17.57
28305;BMP280;15569;42.652;23.040;2023-05-29T01:49:34;92746.28;;;17.59
28305;BMP280;15569;42.652;23.040;2023-05-29T01:52:01;92732.09;;;17.73
28305;BMP280;15569;42.652;23.040;2023-05-29T01:54:27;92750.00;;;17.76
28305;BMP280;15569;42.652;23.040;2023-05-29T01:56:52;92742.91;;;17.65
28305;BMP280;15569;42.652;23.040;2023-05-29T01:59:19;92747.44;;;17.86
28305;BMP280;15569;42.652;23.040;2023-05-29T02:01:45;92745.63;;;18.00
28305;BMP280;15569;42.652;23.040;2023-05-29T02:04:10;92735.28;;;17.99
28305;BMP280;15569;42.652;23.040;2023-05-29T02:06:35;92744.19;;;17.97
28305;BMP280;15569;42.652;23.040;2023-05-29T02:09:01;92756.41;;;16.83
28305;BMP280;15569;42.652;23.040;2023-05-29T02:11:27;92752.66;;;17.00
28305;BMP280;15569;42.652;23.040;2023-05-29T02:13:52;92756.50;;;17.21
28305;BMP280;15569;42.652;23.040;2023-05-29T02:16:18;92755.03;;;16.84
28305;BMP280;15569;42.652;23.040;2023-05-29T02:18:45;92745.03;;;16.67
28305;BMP280;15569;42.652;23.040;2023-05-29T02:21:11;92746.94;;;16.31
28305;BMP280;15569;42.652;23.040;2023-05-29T02:23:36;92747.25;;;16.43
28305;BMP280;15569;42.652;23.040;2023-05-29T02:26:02;92741.97;;;16.83
28305;BMP280;15569;42.652;23.040;2023-05-29T02:28:27;92740.84;;;16.94
28305;BMP280;15569;42.652;23.040;2023-05-29T02:30:53;92748.22;;;16.85
28305;BMP280;15569;42.652;23.040;2023-05-29T02:33:18;92754.31;;;17.13
28305;BMP280;15569;42.652;23.040;2023-05-29T02:35:45;92750.38;;;17.23
28305;BMP280;15569;42.652;23.040;2023-05-29T02:38:10;92739.50;;;17.29
28305;BMP280;15569;42.652;23.040;2023-05-29T02:40:35;92748.84;;;17.49
28305;BMP280;15569;42.652;23.040;2023-05-29T02:43:01;92749.53;;;17.50
28305;BMP280;15569;42.652;23.040;2023-05-29T02:45:26;92759.31;;;17.59
28305;BMP280;15569;42.652;23.040;2023-05-29T02:47:51;92750.44;;;17.62
28305;BMP280;15569;42.652;23.040;2023-05-29T02:50:17;92747.06;;;17.64
28305;BMP280;15569;42.652;23.040;2023-05-29T02:52:42;92753.91;;;17.65
28305;BMP280;15569;42.652;23.040;2023-05-29T02:55:08;92757.47;;;17.71
28305;BMP280;15569;42.652;23.040;2023-05-29T02:57:33;92761.06;;;17.78
28305;BMP280;15569;42.652;23.040;2023-05-29T02:59:59;92769.38;;;17.82
28305;BMP280;15569;42.652;23.040;2023-05-29T03:02:26;92762.47;;;17.79
28305;BMP280;15569;42.652;23.040;2023-05-29T03:04:52;92752.75;;;17.76
28305;BMP280;15569;42.652;23.040;2023-05-29T03:07:20;92752.19;;;17.81
28305;BMP280;15569;42.652;23.040;2023-05-29T03:09:45;92754.34;;;17.89
28305;BMP280;15569;42.652;23.040;2023-05-29T03:12:10;92758.50;;;17.88
28305;BMP280;15569;42.652;23.040;2023-05-29T03:14:37;92757.19;;;17.93
28305;BMP280;15569;42.652;23.040;2023-05-29T03:17:06;92755.78;;;17.92
28305;BMP280;15569;42.652;23.040;2023-05-29T03:19:32;92755.16;;;17.95
28305;BMP280;15569;42.652;23.040;2023-05-29T03:21:58;92762.09;;;17.98
28305;BMP280;15569;42.652;23.040;2023-05-29T03:24:23;92760.06;;;18.01
28305;BMP280;15569;42.652;23.040;2023-05-29T03:26:49;92764.81;;;17.96
28305;BMP280;15569;42.652;23.040;2023-05-29T03:29:15;92765.53;;;17.99
28305;BMP280;15569;42.652;23.040;2023-05-29T03:31:41;92762.72;;;17.95
28305;BMP280;15569;42.652;23.040;2023-05-29T03:34:07;92760.59;;;17.91
28305;BMP280;15569;42.652;23.040;2023-05-29T03:36:32;92768.59;;;17.08
28305;BMP280;15569;42.652;23.040;2023-05-29T03:38:58;92764.91;;;16.66
28305;BMP280;15569;42.652;23.040;2023-05-29T03:41:23;92774.22;;;16.25
28305;BMP280;15569;42.652;23.040;2023-05-29T03:43:50;92787.34;;;16.56
28305;BMP280;15569;42.652;23.040;2023-05-29T03:46:16;92789.75;;;16.72
28305;BMP280;15569;42.652;23.040;2023-05-29T03:48:41;92783.56;;;15.13
28305;BMP280;15569;42.652;23.040;2023-05-29T03:51:06;92789.66;;;15.12
28305;BMP280;15569;42.652;23.040;2023-05-29T03:53:32;92790.53;;;15.18
28305;BMP280;15569;42.652;23.040;2023-05-29T03:55:57;92791.53;;;15.29
28305;BMP280;15569;42.652;23.040;2023-05-29T03:58:22;92792.13;;;15.25
28305;BMP280;15569;42.652;23.040;2023-05-29T04:00:48;92778.53;;;15.29
28305;BMP280;15569;42.652;23.040;2023-05-29T04:03:13;92793.34;;;15.44
28305;BMP280;15569;42.652;23.040;2023-05-29T04:05:39;92800.00;;;15.63
28305;BMP280;15569;42.652;23.040;2023-05-29T04:08:04;92799.44;;;15.92
28305;BMP280;15569;42.652;23.040;2023-05-29T04:10:30;92782.88;;;16.13
28305;BMP280;15569;42.652;23.040;2023-05-29T04:12:59;92804.66;;;16.35
28305;BMP280;15569;42.652;23.040;2023-05-29T04:15:25;92804.41;;;16.82
28305;BMP280;15569;42.652;23.040;2023-05-29T04:17:51;92796.47;;;16.96
28305;BMP280;15569;42.652;23.040;2023-05-29T04:20:16;92794.22;;;17.18
28305;BMP280;15569;42.652;23.040;2023-05-29T04:22:41;92802.56;;;17.23
28305;BMP280;15569;42.652;23.040;2023-05-29T04:25:07;92803.00;;;17.45
28305;BMP280;15569;42.652;23.040;2023-05-29T04:27:32;92797.03;;;17.54
28305;BMP280;15569;42.652;23.040;2023-05-29T04:30:05;92807.94;;;17.86
28305;BMP280;15569;42.652;23.040;2023-05-29T04:32:31;92809.66;;;18.05
28305;BMP280;15569;42.652;23.040;2023-05-29T04:34:58;92811.31;;;18.22
28305;BMP280;15569;42.652;23.040;2023-05-29T04:37:30;92811.66;;;18.42
28305;BMP280;15569;42.652;23.040;2023-05-29T04:39:56;92812.63;;;18.17
28305;BMP280;15569;42.652;23.040;2023-05-29T04:42:23;92815.38;;;17.46
28305;BMP280;15569;42.652;23.040;2023-05-29T04:44:50;92824.06;;;16.15
28305;BMP280;15569;42.652;23.040;2023-05-29T04:47:18;92820.84;;;16.25
28305;BMP280;15569;42.652;23.040;2023-05-29T04:49:44;92828.59;;;16.33
28305;BMP280;15569;42.652;23.040;2023-05-29T04:52:15;92831.41;;;16.09
28305;BMP280;15569;42.652;23.040;2023-05-29T04:54:40;92829.63;;;16.19
28305;BMP280;15569;42.652;23.040;2023-05-29T04:57:06;92828.63;;;16.07
28305;BMP280;15569;42.652;23.040;2023-05-29T04:59:31;92841.00;;;16.08
28305;BMP280;15569;42.652;23.040;2023-05-29T05:01:57;92837.19;;;16.47
28305;BMP280;15569;42.652;23.040;2023-05-29T05:04:22;92838.59;;;16.77
28305;BMP280;15569;42.652;23.040;2023-05-29T05:06:47;92828.94;;;16.74
28305;BMP280;15569;42.652;23.040;2023-05-29T05:09:13;92840.41;;;16.96
28305;BMP280;15569;42.652;23.040;2023-05-29T05:11:38;92851.34;;;17.24
28305;BMP280;15569;42.652;23.040;2023-05-29T05:14:03;92851.72;;;17.40
28305;BMP280;15569;42.652;23.040;2023-05-29T05:16:29;92855.81;;;17.75
28305;BMP280;15569;42.652;23.040;2023-05-29T05:18:54;92852.22;;;18.00
28305;BMP280;15569;42.652;23.040;2023-05-29T05:21:20;92850.84;;;18.39
28305;BMP280;15569;42.652;23.040;2023-05-29T05:23:45;92862.31;;;18.67
28305;BMP280;15569;42.652;23.040;2023-05-29T05:26:11;92868.53;;;18.67
28305;BMP280;15569;42.652;23.040;2023-05-29T05:28:37;92866.28;;;19.01
28305;BMP280;15569;42.652;23.040;2023-05-29T05:31:02;92857.66;;;19.23
28305;BMP280;15569;42.652;23.040;2023-05-29T05:33:28;92859.78;;;19.28
28305;BMP280;15569;42.652;23.040;2023-05-29T05:35:53;92861.91;;;19.30
28305;BMP280;15569;42.652;23.040;2023-05-29T05:38:18;92854.19;;;19.20
28305;BMP280;15569;42.652;23.040;2023-05-29T05:40:44;92843.38;;;19.37
28305;BMP280;15569;42.652;23.040;2023-05-29T05:43:10;92850.47;;;19.54
28305;BMP280;15569;42.652;23.040;2023-05-29T05:45:35;92856.16;;;19.68
28305;BMP280;15569;42.652;23.040;2023-05-29T05:48:03;92853.41;;;19.70
28305;BMP280;15569;42.652;23.040;2023-05-29T05:50:28;92861.59;;;19.60
28305;BMP280;15569;42.652;23.040;2023-05-29T05:52:54;92851.50;;;19.80
28305;BMP280;15569;42.652;23.040;2023-05-29T05:55:19;92856.94;;;19.72
28305;BMP280;15569;42.652;23.040;2023-05-29T05:57:45;92856.38;;;19.86
28305;BMP280;15569;42.652;23.040;2023-05-29T06:00:11;92848.88;;;19.92
28305;BMP280;15569;42.652;23.040;2023-05-29T06:02:37;92857.63;;;19.75
28305;BMP280;15569;42.652;23.040;2023-05-29T06:05:03;92855.56;;;19.73
28305;BMP280;15569;42.652;23.040;2023-05-29T06:07:29;92863.28;;;19.87
28305;BMP280;15569;42.652;23.040;2023-05-29T06:09:55;92863.81;;;19.71
28305;BMP280;15569;42.652;23.040;2023-05-29T06:12:20;92857.16;;;19.96
28305;BMP280;15569;42.652;23.040;2023-05-29T06:14:45;92868.97;;;19.99
28305;BMP280;15569;42.652;23.040;2023-05-29T06:17:11;92871.09;;;20.08
28305;BMP280;15569;42.652;23.040;2023-05-29T06:19:36;92875.22;;;20.05
28305;BMP280;15569;42.652;23.040;2023-05-29T06:22:02;92866.06;;;19.91
28305;BMP280;15569;42.652;23.040;2023-05-29T06:24:27;92868.75;;;19.83
28305;BMP280;15569;42.652;23.040;2023-05-29T06:26:53;92877.06;;;19.85
28305;BMP280;15569;42.652;23.040;2023-05-29T06:29:18;92878.59;;;19.98
28305;BMP280;15569;42.652;23.040;2023-05-29T06:31:44;92871.28;;;20.22
28305;BMP280;15569;42.652;23.040;2023-05-29T06:34:09;92873.22;;;20.10
28305;BMP280;15569;42.652;23.040;2023-05-29T06:36:34;92874.47;;;20.01
28305;BMP280;15569;42.652;23.040;2023-05-29T06:39:00;92885.47;;;19.97
28305;BMP280;15569;42.652;23.040;2023-05-29T06:41:26;92879.38;;;20.08
28305;BMP280;15569;42.652;23.040;2023-05-29T06:43:51;92876.09;;;20.26
28305;BMP280;15569;42.652;23.040;2023-05-29T06:46:16;92881.72;;;20.34
28305;BMP280;15569;42.652;23.040;2023-05-29T06:48:42;92873.63;;;20.52
28305;BMP280;15569;42.652;23.040;2023-05-29T06:51:07;92870.16;;;20.52
28305;BMP280;15569;42.652;23.040;2023-05-29T06:53:37;92872.19;;;20.47
28305;BMP280;15569;42.652;23.040;2023-05-29T06:56:02;92868.38;;;20.12
28305;BMP280;15569;42.652;23.040;2023-05-29T06:58:29;92876.63;;;20.08
28305;BMP280;15569;42.652;23.040;2023-05-29T07:00:55;92880.84;;;20.17
28305;BMP280;15569;42.652;23.040;2023-05-29T07:03:20;92880.19;;;20.19
28305;BMP280;15569;42.652;23.040;2023-05-29T07:05:46;92874.53;;;20.05
28305;BMP280;15569;42.652;23.040;2023-05-29T07:08:11;92875.13;;;19.99
28305;BMP280;15569;42.652;23.040;2023-05-29T07:10:37;92877.72;;;19.83
28305;BMP280;15569;42.652;23.040;2023-05-29T07:13:02;92877.94;;;20.01
28305;BMP280;15569;42.652;23.040;2023-05-29T07:15:27;92877.38;;;20.13
28305;BMP280;15569;42.652;23.040;2023-05-29T07:17:53;92872.38;;;19.97
28305;BMP280;15569;42.652;23.040;2023-05-29T07:20:18;92867.69;;;20.12
28305;BMP280;15569;42.652;23.040;2023-05-29T07:22:45;92867.59;;;20.02
28305;BMP280;15569;42.652;23.040;2023-05-29T07:25:11;92862.66;;;19.92
28305;BMP280;15569;42.652;23.040;2023-05-29T07:27:37;92865.69;;;20.20
28305;BMP280;15569;42.652;23.040;2023-05-29T07:30:03;92849.84;;;20.19
28305;BMP280;15569;42.652;23.040;2023-05-29T07:32:29;92864.41;;;20.27
28305;BMP280;15569;42.652;23.040;2023-05-29T07:34:55;92862.16;;;20.10
28305;BMP280;15569;42.652;23.040;2023-05-29T07:37:21;92857.56;;;20.32
28305;BMP280;15569;42.652;23.040;2023-05-29T07:39:46;92853.22;;;20.13
28305;BMP280;15569;42.652;23.040;2023-05-29T07:42:11;92859.97;;;20.00
28305;BMP280;15569;42.652;23.040;2023-05-29T07:44:37;92860.72;;;20.05
28305;BMP280;15569;42.652;23.040;2023-05-29T07:47:02;92860.56;;;19.89
28305;BMP280;15569;42.652;23.040;2023-05-29T07:49:28;92849.78;;;20.11
28305;BMP280;15569;42.652;23.040;2023-05-29T07:51:53;92864.22;;;20.07
28305;BMP280;15569;42.652;23.040;2023-05-29T07:54:18;92854.88;;;20.42
28305;BMP280;15569;42.652;23.040;2023-05-29T07:56:46;92854.72;;;20.22
28305;BMP280;15569;42.652;23.040;2023-05-29T07:59:11;92851.94;;;20.22
28305;BMP280;15569;42.652;23.040;2023-05-29T08:01:37;92854.88;;;20.41
28305;BMP280;15569;42.652;23.040;2023-05-29T08:04:04;92854.41;;;20.64
28305;BMP280;15569;42.652;23.040;2023-05-29T08:06:29;92857.00;;;20.50
28305;BMP280;15569;42.652;23.040;2023-05-29T08:08:57;92859.09;;;20.54
28305;BMP280;15569;42.652;23.040;2023-05-29T08:11:23;92861.88;;;20.54
28305;BMP280;15569;42.652;23.040;2023-05-29T08:13:48;92862.63;;;20.58
28305;BMP280;15569;42.652;23.040;2023-05-29T08:16:13;92862.50;;;20.46
28305;BMP280;15569;42.652;23.040;2023-05-29T08:18:41;92858.41;;;20.49
28305;BMP280;15569;42.652;23.040;2023-05-29T08:21:06;92863.28;;;20.53
28305;BMP280;15569;42.652;23.040;2023-05-29T08:23:32;92858.31;;;20.39
28305;BMP280;15569;42.652;23.040;2023-05-29T08:25:57;92863.22;;;20.49
28305;BMP280;15569;42.652;23.040;2023-05-29T08:28:22;92861.94;;;20.60
28305;BMP280;15569;42.652;23.040;2023-05-29T08:30:48;92855.81;;;20.71
28305;BMP280;15569;42.652;23.040;2023-05-29T08:33:13;92866.16;;;20.71
28305;BMP280;15569;42.652;23.040;2023-05-29T08:35:39;92858.00;;;20.87
28305;BMP280;15569;42.652;23.040;2023-05-29T08:38:04;92861.47;;;20.87
28305;BMP280;15569;42.652;23.040;2023-05-29T08:40:29;92857.94;;;20.79
28305;BMP280;15569;42.652;23.040;2023-05-29T08:43:16;92873.94;;;20.90
28305;BMP280;15569;42.652;23.040;2023-05-29T08:45:44;92871.81;;;20.85
28305;BMP280;15569;42.652;23.040;2023-05-29T08:48:11;92869.84;;;21.01
28305;BMP280;15569;42.652;23.040;2023-05-29T08:50:46;92853.13;;;20.83
28305;BMP280;15569;42.652;23.040;2023-05-29T08:53:13;92858.78;;;20.97
28305;BMP280;15569;42.652;23.040;2023-05-29T08:55:38;92863.72;;;21.19
28305;BMP280;15569;42.652;23.040;2023-05-29T08:58:04;92859.06;;;21.45
28305;BMP280;15569;42.652;23.040;2023-05-29T09:00:31;92858.94;;;21.23
28305;BMP280;15569;42.652;23.040;2023-05-29T09:02:56;92853.38;;;21.17
28305;BMP280;15569;42.652;23.040;2023-05-29T09:05:24;92843.78;;;21.34
28305;BMP280;15569;42.652;23.040;2023-05-29T09:07:53;92852.06;;;21.30
28305;BMP280;15569;42.652;23.040;2023-05-29T09:10:19;92852.00;;;21.18
28305;BMP280;15569;42.652;23.040;2023-05-29T09:12:46;92850.72;;;21.35
28305;BMP280;15569;42.652;23.040;2023-05-29T09:15:18;92844.53;;;21.45
28305;BMP280;15569;42.652;23.040;2023-05-29T09:17:49;92841.81;;;21.55
28305;BMP280;15569;42.652;23.040;2023-05-29T09:20:16;92841.88;;;21.71
28305;BMP280;15569;42.652;23.040;2023-05-29T09:22:58;92834.97;;;21.82
28305;BMP280;15569;42.652;23.040;2023-05-29T09:25:25;92835.63;;;21.63
28305;BMP280;15569;42.652;23.040;2023-05-29T09:27:55;92827.31;;;21.60
28305;BMP280;15569;42.652;23.040;2023-05-29T09:30:41;92826.56;;;21.46
28305;BMP280;15569;42.652;23.040;2023-05-29T09:33:08;92818.97;;;21.54
28305;BMP280;15569;42.652;23.040;2023-05-29T09:38:00;92821.09;;;21.70
28305;BMP280;15569;42.652;23.040;2023-05-29T09:40:26;92816.97;;;21.73
28305;BMP280;15569;42.652;23.040;2023-05-29T09:42:51;92821.88;;;21.99
28305;BMP280;15569;42.652;23.040;2023-05-29T09:45:17;92810.06;;;21.74
28305;BMP280;15569;42.652;23.040;2023-05-29T09:47:43;92819.13;;;21.97
28305;BMP280;15569;42.652;23.040;2023-05-29T09:50:18;92808.06;;;22.13
28305;BMP280;15569;42.652;23.040;2023-05-29T09:52:46;92815.63;;;21.84
28305;BMP280;15569;42.652;23.040;2023-05-29T09:55:13;92807.31;;;21.86
28305;BMP280;15569;42.652;23.040;2023-05-29T09:57:47;92813.56;;;21.95
28305;BMP280;15569;42.652;23.040;2023-05-29T10:00:17;92805.97;;;21.99
28305;BMP280;15569;42.652;23.040;2023-05-29T10:02:42;92810.13;;;21.96
28305;BMP280;15569;42.652;23.040;2023-05-29T10:05:08;92799.75;;;22.01
28305;BMP280;15569;42.652;23.040;2023-05-29T10:07:36;92801.16;;;22.12
28305;BMP280;15569;42.652;23.040;2023-05-29T10:10:04;92796.97;;;21.97
28305;BMP280;15569;42.652;23.040;2023-05-29T10:12:36;92794.91;;;22.05
28305;BMP280;15569;42.652;23.040;2023-05-29T10:15:07;92808.72;;;21.99
28305;BMP280;15569;42.652;23.040;2023-05-29T10:17:37;92789.38;;;22.09
28305;BMP280;15569;42.652;23.040;2023-05-29T10:20:05;92790.09;;;22.24
28305;BMP280;15569;42.652;23.040;2023-05-29T10:22:38;92803.94;;;22.48
28305;BMP280;15569;42.652;23.040;2023-05-29T10:25:05;92794.22;;;22.47
28305;BMP280;15569;42.652;23.040;2023-05-29T10:27:31;92797.03;;;22.39
28305;BMP280;15569;42.652;23.040;2023-05-29T10:30:07;92785.25;;;22.42
28305;BMP280;15569;42.652;23.040;2023-05-29T10:32:56;92791.47;;;22.61
28305;BMP280;15569;42.652;23.040;2023-05-29T10:35:36;92805.31;;;22.49
28305;BMP280;15569;42.652;23.040;2023-05-29T10:38:15;92784.56;;;22.34
28305;BMP280;15569;42.652;23.040;2023-05-29T10:40:44;92792.16;;;22.63
28305;BMP280;15569;42.652;23.040;2023-05-29T10:43:32;92794.94;;;22.45
28305;BMP280;15569;42.652;23.040;2023-05-29T10:45:59;92790.75;;;22.58
28305;BMP280;15569;42.652;23.040;2023-05-29T10:50:54;92792.13;;;22.55
28305;BMP280;15569;42.652;23.040;2023-05-29T10:53:24;92788.00;;;22.20
28305;BMP280;15569;42.652;23.040;2023-05-29T10:55:51;92783.16;;;22.29
28305;BMP280;15569;42.652;23.040;2023-05-29T10:58:21;92783.16;;;22.33
28305;BMP280;15569;42.652;23.040;2023-05-29T11:00:50;92776.22;;;22.48
28305;BMP280;15569;42.652;23.040;2023-05-29T11:03:20;92778.97;;;22.68
28305;BMP280;15569;42.652;23.040;2023-05-29T11:05:57;92770.63;;;22.82
28305;BMP280;15569;42.652;23.040;2023-05-29T11:08:33;92762.25;;;23.04
28305;BMP280;15569;42.652;23.040;2023-05-29T11:10:59;92766.44;;;22.97
28305;BMP280;15569;42.652;23.040;2023-05-29T11:13:37;92755.25;;;23.21
28305;BMP280;15569;42.652;23.040;2023-05-29T11:18:47;92738.97;;;23.84
28305;BMP280;15569;42.652;23.040;2023-05-29T11:24:16;92745.22;;;23.82
28305;BMP280;15569;42.652;23.040;2023-05-29T11:26:46;92753.41;;;24.00
28305;BMP280;15569;42.652;23.040;2023-05-29T11:29:12;92738.78;;;24.10
28305;BMP280;15569;42.652;23.040;2023-05-29T11:31:39;92747.00;;;24.22
28305;BMP280;15569;42.652;23.040;2023-05-29T11:34:09;92737.38;;;24.13
28305;BMP280;15569;42.652;23.040;2023-05-29T11:36:35;92746.78;;;24.48
28305;BMP280;15569;42.652;23.040;2023-05-29T11:39:02;92726.59;;;24.54
28305;BMP280;15569;42.652;23.040;2023-05-29T11:41:29;92747.06;;;24.89
28305;BMP280;15569;42.652;23.040;2023-05-29T11:46:24;92750.41;;;25.01
28305;BMP280;15569;42.652;23.040;2023-05-29T11:48:51;92737.97;;;24.94
28305;BMP280;15569;42.652;23.040;2023-05-29T11:51:17;92739.13;;;25.13
28305;BMP280;15569;42.652;23.040;2023-05-29T11:53:43;92736.41;;;25.07
28305;BMP280;15569;42.652;23.040;2023-05-29T11:56:12;92730.69;;;24.61
28305;BMP280;15569;42.652;23.040;2023-05-29T11:58:39;92735.78;;;25.03
28305;BMP280;15569;42.652;23.040;2023-05-29T12:01:05;92736.09;;;25.33
28305;BMP280;15569;42.652;23.040;2023-05-29T12:03:40;92728.28;;;25.44
28305;BMP280;15569;42.652;23.040;2023-05-29T12:06:06;92729.69;;;25.43
28305;BMP280;15569;42.652;23.040;2023-05-29T12:08:32;92725.47;;;25.95
28305;BMP280;15569;42.652;23.040;2023-05-29T12:10:57;92709.13;;;26.13
28305;BMP280;15569;42.652;23.040;2023-05-29T12:13:22;92721.53;;;26.20
28305;BMP280;15569;42.652;23.040;2023-05-29T12:15:52;92715.41;;;26.14
28305;BMP280;15569;42.652;23.040;2023-05-29T12:18:18;92729.22;;;26.60
28305;BMP280;15569;42.652;23.040;2023-05-29T12:20:44;92715.53;;;26.46
28305;BMP280;15569;42.652;23.040;2023-05-29T12:23:10;92718.53;;;26.71
28305;BMP280;15569;42.652;23.040;2023-05-29T12:25:37;92714.47;;;27.00
28305;BMP280;15569;42.652;23.040;2023-05-29T12:28:03;92719.56;;;27.24
28305;BMP280;15569;42.652;23.040;2023-05-29T12:30:29;92720.16;;;26.96
28305;BMP280;15569;42.652;23.040;2023-05-29T12:32:54;92721.84;;;26.81
28305;BMP280;15569;42.652;23.040;2023-05-29T12:35:22;92723.56;;;26.64
28305;BMP280;15569;42.652;23.040;2023-05-29T12:37:58;92720.44;;;26.80
28305;BMP280;15569;42.652;23.040;2023-05-29T12:40:25;92716.72;;;26.94
28305;BMP280;15569;42.652;23.040;2023-05-29T12:42:59;92712.13;;;27.13
28305;BMP280;15569;42.652;23.040;2023-05-29T12:45:28;92719.56;;;26.90
28305;BMP280;15569;42.652;23.040;2023-05-29T12:48:04;92721.88;;;27.46
28305;BMP280;15569;42.652;23.040;2023-05-29T12:50:34;92738.16;;;26.67
28305;BMP280;15569;42.652;23.040;2023-05-29T12:53:10;92734.09;;;25.76
28305;BMP280;15569;42.652;23.040;2023-05-29T12:55:41;92722.66;;;26.37
28305;BMP280;15569;42.652;23.040;2023-05-29T12:58:15;92710.28;;;26.28
28305;BMP280;15569;42.652;23.040;2023-05-29T13:00:43;92728.03;;;26.49
28305;BMP280;15569;42.652;23.040;2023-05-29T13:03:09;92743.69;;;26.69
28305;BMP280;15569;42.652;23.040;2023-05-29T13:05:36;92733.50;;;25.68
28305;BMP280;15569;42.652;23.040;2023-05-29T13:08:02;92748.34;;;25.52
28305;BMP280;15569;42.652;23.040;2023-05-29T13:10:27;92749.91;;;26.35
28305;BMP280;15569;42.652;23.040;2023-05-29T13:12:54;92752.88;;;26.63
28305;BMP280;15569;42.652;23.040;2023-05-29T13:15:22;92752.19;;;26.22
28305;BMP280;15569;42.652;23.040;2023-05-29T13:17:48;92755.16;;;25.65
28305;BMP280;15569;42.652;23.040;2023-05-29T13:20:14;92751.59;;;25.16
28305;BMP280;15569;42.652;23.040;2023-05-29T13:22:40;92751.63;;;25.14
28305;BMP280;15569;42.652;23.040;2023-05-29T13:25:07;92745.72;;;24.84
28305;BMP280;15569;42.652;23.040;2023-05-29T13:27:35;92751.78;;;24.33
28305;BMP280;15569;42.652;23.040;2023-05-29T13:30:02;92763.59;;;24.30
28305;BMP280;15569;42.652;23.040;2023-05-29T13:32:27;92758.22;;;24.08
28305;BMP280;15569;42.652;23.040;2023-05-29T13:34:53;92757.09;;;23.71
28305;BMP280;15569;42.652;23.040;2023-05-29T13:37:18;92771.16;;;23.39
28305;BMP280;15569;42.652;23.040;2023-05-29T13:39:43;92767.72;;;23.30
28305;BMP280;15569;42.652;23.040;2023-05-29T13:42:09;92769.84;;;23.12
28305;BMP280;15569;42.652;23.040;2023-05-29T13:44:35;92767.84;;;22.88
28305;BMP280;15569;42.652;23.040;2023-05-29T13:47:01;92761.66;;;22.71
28305;BMP280;15569;42.652;23.040;2023-05-29T13:49:26;92762.97;;;23.01
28305;BMP280;15569;42.652;23.040;2023-05-29T13:51:52;92764.28;;;23.24
28305;BMP280;15569;42.652;23.040;2023-05-29T13:54:17;92759.22;;;23.62
28305;BMP280;15569;42.652;23.040;2023-05-29T13:56:43;92766.88;;;23.60
28305;BMP280;15569;42.652;23.040;2023-05-29T13:59:09;92751.16;;;23.14
28305;BMP280;15569;42.652;23.040;2023-05-29T14:01:34;92753.91;;;23.10
28305;BMP280;15569;42.652;23.040;2023-05-29T14:03:59;92755.16;;;23.45
28305;BMP280;15569;42.652;23.040;2023-05-29T14:06:25;92756.88;;;24.01
28305;BMP280;15569;42.652;23.040;2023-05-29T14:08:51;92756.00;;;24.24
28305;BMP280;15569;42.652;23.040;2023-05-29T14:11:17;92751.91;;;24.15
28305;BMP280;15569;42.652;23.040;2023-05-29T14:13:43;92758.06;;;24.28
28305;BMP280;15569;42.652;23.040;2023-05-29T14:16:08;92746.28;;;24.25
28305;BMP280;15569;42.652;23.040;2023-05-29T14:18:34;92746.41;;;24.09